sensor_id;sensor_type;location;lat;lon;timestamp;pressure;altitude;pressure_sealevel;temperature;humidity
83248;BME280;73465;51.038;7.052;2024-02-21T00:01:07;101634.19;;;9.73;65.52
83248;BME280;73465;51.038;7.052;2024-02-21T00:03:32;101626.22;;;9.76;65.71
83248;BME280;73465;51.038;7.052;2024-02-21T00:05:58;101631.31;;;9.82;65.43
83248;BME280;73465;51.038;7.052;2024-02-21T00:08:24;101639.34;;;9.76;65.32
83248;BME280;73465;51.038;7.052;2024-02-21T00:10:49;101618.31;;;9.76;65.23
83248;BME280;73465;51.038;7.052;2024-02-21T00:13:15;101608.69;;;9.76;66.25
83248;BME280;73465;51.038;7.052;2024-02-21T00:15:40;101598.16;;;9.76;65.65
83248;BME280;73465;51.038;7.052;2024-02-21T00:18:08;101607.25;;;9.64;65.85
83248;BME280;73465;51.038;7.052;2024-02-21T00:20:36;101604.59;;;9.64;66.71
83248;BME280;73465;51.038;7.052;2024-02-21T00:23:02;101599.00;;;9.77;66.08
83248;BME280;73465;51.038;7.052;2024-02-21T00:25:27;101586.75;;;9.76;66.04
83248;BME280;73465;51.038;7.052;2024-02-21T00:27:52;101590.03;;;9.84;66.58
83248;BME280;73465;51.038;7.052;2024-02-21T00:30:19;101582.25;;;9.81;66.31
83248;BME280;73465;51.038;7.052;2024-02-21T00:32:44;101588.06;;;9.92;65.92
83248;BME280;73465;51.038;7.052;2024-02-21T00:35:09;101589.06;;;9.88;66.04
83248;BME280;73465;51.038;7.052;2024-02-21T00:37:35;101566.66;;;9.75;66.23
83248;BME280;73465;51.038;7.052;2024-02-21T00:40:03;101581.66;;;9.70;67.31
83248;BME280;73465;51.038;7.052;2024-02-21T00:42:28;101572.72;;;9.77;66.95
83248;BME280;73465;51.038;7.052;2024-02-21T00:44:54;101570.34;;;9.68;67.22
83248;BME280;73465;51.038;7.052;2024-02-21T00:47:22;101570.44;;;9.64;67.56
83248;BME280;73465;51.038;7.052;2024-02-21T00:49:47;101569.53;;;9.66;67.30
83248;BME280;73465;51.038;7.052;2024-02-21T00:52:19;101556.63;;;9.56;68.17
83248;BME280;73465;51.038;7.052;2024-02-21T00:54:47;101553.13;;;9.56;68.19
83248;BME280;73465;51.038;7.052;2024-02-21T00:57:17;101543.28;;;9.64;68.23
83248;BME280;73465;51.038;7.052;2024-02-21T00:59:45;101557.97;;;9.71;67.62
83248;BME280;73465;51.038;7.052;2024-02-21T01:02:13;101540.00;;;9.56;68.08
83248;BME280;73465;51.038;7.052;2024-02-21T01:04:38;101558.63;;;9.46;68.84
83248;BME280;73465;51.038;7.052;2024-02-21T01:07:06;101554.03;;;9.55;68.32
83248;BME280;73465;51.038;7.052;2024-02-21T01:09:32;101543.41;;;9.59;68.57
83248;BME280;73465;51.038;7.052;2024-02-21T01:12:00;101551.94;;;9.68;67.81
83248;BME280;73465;51.038;7.052;2024-02-21T01:14:25;101546.34;;;9.80;67.57
83248;BME280;73465;51.038;7.052;2024-02-21T01:16:51;101546.28;;;9.82;67.47
83248;BME280;73465;51.038;7.052;2024-02-21T01:19:19;101549.16;;;9.72;68.24
83248;BME280;73465;51.038;7.052;2024-02-21T01:21:45;101543.22;;;9.66;68.67
83248;BME280;73465;51.038;7.052;2024-02-21T01:24:10;101551.06;;;9.67;68.42
83248;BME280;73465;51.038;7.052;2024-02-21T01:26:38;101537.91;;;9.69;67.92
83248;BME280;73465;51.038;7.052;2024-02-21T01:29:07;101525.28;;;9.80;68.15
83248;BME280;73465;51.038;7.052;2024-02-21T01:31:33;101534.97;;;9.78;68.27
83248;BME280;73465;51.038;7.052;2024-02-21T01:33:58;101537.38;;;9.86;68.22
83248;BME280;73465;51.038;7.052;2024-02-21T01:36:24;101530.50;;;9.82;68.43
83248;BME280;73465;51.038;7.052;2024-02-21T01:38:49;101531.31;;;9.84;68.25
83248;BME280;73465;51.038;7.052;2024-02-21T01:41:15;101514.66;;;9.83;67.92
83248;BME280;73465;51.038;7.052;2024-02-21T01:43:41;101511.13;;;9.84;67.52
83248;BME280;73465;51.038;7.052;2024-02-21T01:46:09;101517.13;;;9.89;67.61
83248;BME280;73465;51.038;7.052;2024-02-21T01:48:35;101503.53;;;9.75;68.03
83248;BME280;73465;51.038;7.052;2024-02-21T01:51:01;101499.75;;;9.84;67.95
83248;BME280;73465;51.038;7.052;2024-02-21T01:53:35;101503.56;;;9.73;68.09
83248;BME280;73465;51.038;7.052;2024-02-21T01:56:05;101501.50;;;9.83;68.43
83248;BME280;73465;51.038;7.052;2024-02-21T01:58:32;101493.34;;;9.92;67.85
83248;BME280;73465;51.038;7.052;2024-02-21T02:01:06;101490.50;;;9.70;68.76
83248;BME280;73465;51.038;7.052;2024-02-21T02:03:31;101486.22;;;9.66;68.20
83248;BME280;73465;51.038;7.052;2024-02-21T02:05:57;101477.34;;;9.70;68.39
83248;BME280;73465;51.038;7.052;2024-02-21T02:08:23;101479.47;;;9.57;68.56
83248;BME280;73465;51.038;7.052;2024-02-21T02:10:48;101463.63;;;9.60;69.09
83248;BME280;73465;51.038;7.052;2024-02-21T02:13:14;101459.25;;;9.59;68.66
83248;BME280;73465;51.038;7.052;2024-02-21T02:15:47;101470.13;;;9.78;67.69
83248;BME280;73465;51.038;7.052;2024-02-21T02:18:17;101455.50;;;9.68;68.28
83248;BME280;73465;51.038;7.052;2024-02-21T02:20:46;101472.75;;;9.77;68.55
83248;BME280;73465;51.038;7.052;2024-02-21T02:25:50;101461.53;;;9.72;68.04
83248;BME280;73465;51.038;7.052;2024-02-21T02:28:17;101447.66;;;9.67;68.40
83248;BME280;73465;51.038;7.052;2024-02-21T02:30:43;101444.31;;;9.61;68.26
83248;BME280;73465;51.038;7.052;2024-02-21T02:33:12;101439.06;;;9.61;68.80
83248;BME280;73465;51.038;7.052;2024-02-21T02:35:37;101425.56;;;9.72;68.39
83248;BME280;73465;51.038;7.052;2024-02-21T02:38:03;101411.94;;;9.59;68.13
83248;BME280;73465;51.038;7.052;2024-02-21T02:40:30;101413.13;;;9.49;68.18
83248;BME280;73465;51.038;7.052;2024-02-21T02:42:55;101407.88;;;9.49;68.46
83248;BME280;73465;51.038;7.052;2024-02-21T02:45:22;101424.00;;;9.67;68.26
83248;BME280;73465;51.038;7.052;2024-02-21T02:47:56;101411.56;;;9.72;68.07
83248;BME280;73465;51.038;7.052;2024-02-21T02:50:25;101402.97;;;9.67;68.37
83248;BME280;73465;51.038;7.052;2024-02-21T02:52:51;101421.22;;;9.71;68.16
83248;BME280;73465;51.038;7.052;2024-02-21T02:55:16;101408.22;;;9.67;68.29
83248;BME280;73465;51.038;7.052;2024-02-21T02:57:42;101412.78;;;9.60;68.99
83248;BME280;73465;51.038;7.052;2024-02-21T03:00:09;101413.56;;;9.63;68.09
83248;BME280;73465;51.038;7.052;2024-02-21T03:02:37;101424.06;;;9.63;68.20
83248;BME280;73465;51.038;7.052;2024-02-21T03:05:17;101415.47;;;9.28;68.94
83248;BME280;73465;51.038;7.052;2024-02-21T03:07:43;101422.00;;;9.45;68.94
83248;BME280;73465;51.038;7.052;2024-02-21T03:10:10;101416.69;;;9.46;68.64
83248;BME280;73465;51.038;7.052;2024-02-21T03:12:35;101400.31;;;9.37;68.90
83248;BME280;73465;51.038;7.052;2024-02-21T03:15:01;101394.16;;;9.39;68.74
83248;BME280;73465;51.038;7.052;2024-02-21T03:17:27;101385.31;;;9.40;68.67
83248;BME280;73465;51.038;7.052;2024-02-21T03:19:53;101394.75;;;9.47;68.50
83248;BME280;73465;51.038;7.052;2024-02-21T03:22:21;101385.75;;;9.26;69.53
83248;BME280;73465;51.038;7.052;2024-02-21T03:24:47;101371.81;;;9.23;69.56
83248;BME280;73465;51.038;7.052;2024-02-21T03:27:13;101372.97;;;9.14;69.87
83248;BME280;73465;51.038;7.052;2024-02-21T03:29:39;101375.16;;;9.29;69.10
83248;BME280;73465;51.038;7.052;2024-02-21T03:32:05;101364.78;;;9.25;69.58
83248;BME280;73465;51.038;7.052;2024-02-21T03:34:31;101364.63;;;9.29;69.65
83248;BME280;73465;51.038;7.052;2024-02-21T03:36:58;101360.06;;;9.05;69.85
83248;BME280;73465;51.038;7.052;2024-02-21T03:39:24;101363.03;;;9.24;70.21
83248;BME280;73465;51.038;7.052;2024-02-21T03:41:52;101373.13;;;9.38;69.17
83248;BME280;73465;51.038;7.052;2024-02-21T03:44:18;101363.53;;;9.37;68.76
83248;BME280;73465;51.038;7.052;2024-02-21T03:46:43;101356.22;;;9.46;69.06
83248;BME280;73465;51.038;7.052;2024-02-21T03:49:09;101337.09;;;9.41;68.50
83248;BME280;73465;51.038;7.052;2024-02-21T03:51:34;101352.16;;;9.36;69.05
83248;BME280;73465;51.038;7.052;2024-02-21T03:54:00;101337.97;;;9.12;69.48
83248;BME280;73465;51.038;7.052;2024-02-21T03:56:25;101350.09;;;9.18;69.97
83248;BME280;73465;51.038;7.052;2024-02-21T03:58:51;101357.66;;;9.28;69.88
83248;BME280;73465;51.038;7.052;2024-02-21T04:01:16;101357.38;;;9.38;69.17
83248;BME280;73465;51.038;7.052;2024-02-21T04:03:43;101345.28;;;9.32;69.58
83248;BME280;73465;51.038;7.052;2024-02-21T04:06:09;101357.66;;;9.28;69.33
83248;BME280;73465;51.038;7.052;2024-02-21T04:08:35;101347.50;;;9.16;69.93
83248;BME280;73465;51.038;7.052;2024-02-21T04:11:00;101344.88;;;9.16;69.93
83248;BME280;73465;51.038;7.052;2024-02-21T04:13:25;101347.41;;;9.19;69.35
83248;BME280;73465;51.038;7.052;2024-02-21T04:15:51;101354.44;;;9.19;69.16
83248;BME280;73465;51.038;7.052;2024-02-21T04:18:20;101348.06;;;9.27;68.83
83248;BME280;73465;51.038;7.052;2024-02-21T04:20:46;101363.81;;;9.27;69.88
83248;BME280;73465;51.038;7.052;2024-02-21T04:23:14;101363.94;;;9.23;69.89
83248;BME280;73465;51.038;7.052;2024-02-21T04:25:40;101354.94;;;9.31;69.28
83248;BME280;73465;51.038;7.052;2024-02-21T04:28:08;101347.88;;;9.34;69.36
83248;BME280;73465;51.038;7.052;2024-02-21T04:30:33;101333.19;;;9.26;69.29
83248;BME280;73465;51.038;7.052;2024-02-21T04:32:59;101328.16;;;9.19;69.82
83248;BME280;73465;51.038;7.052;2024-02-21T04:35:24;101333.25;;;9.23;69.51
83248;BME280;73465;51.038;7.052;2024-02-21T04:37:52;101319.41;;;9.18;69.49
83248;BME280;73465;51.038;7.052;2024-02-21T04:40:19;101327.88;;;9.28;69.54
83248;BME280;73465;51.038;7.052;2024-02-21T04:42:45;101333.06;;;9.31;69.55
83248;BME280;73465;51.038;7.052;2024-02-21T04:45:10;101326.06;;;9.30;68.92
83248;BME280;73465;51.038;7.052;2024-02-21T04:47:35;101330.19;;;9.39;68.92
83248;BME280;73465;51.038;7.052;2024-02-21T04:50:01;101335.56;;;9.36;69.14
83248;BME280;73465;51.038;7.052;2024-02-21T04:52:26;101344.03;;;9.44;68.64
83248;BME280;73465;51.038;7.052;2024-02-21T04:54:54;101343.00;;;9.50;68.88
83248;BME280;73465;51.038;7.052;2024-02-21T04:57:19;101343.72;;;9.55;68.45
83248;BME280;73465;51.038;7.052;2024-02-21T04:59:45;101344.91;;;9.44;68.91
83248;BME280;73465;51.038;7.052;2024-02-21T05:02:12;101334.97;;;9.26;69.25
83248;BME280;73465;51.038;7.052;2024-02-21T05:04:38;101334.78;;;9.32;69.79
83248;BME280;73465;51.038;7.052;2024-02-21T05:07:04;101336.19;;;9.14;69.96
83248;BME280;73465;51.038;7.052;2024-02-21T05:09:30;101327.41;;;9.15;69.26
83248;BME280;73465;51.038;7.052;2024-02-21T05:11:56;101328.19;;;9.17;69.22
83248;BME280;73465;51.038;7.052;2024-02-21T05:14:21;101331.69;;;9.18;68.85
83248;BME280;73465;51.038;7.052;2024-02-21T05:16:46;101325.75;;;9.11;70.05
83248;BME280;73465;51.038;7.052;2024-02-21T05:19:12;101312.41;;;9.19;69.22
83248;BME280;73465;51.038;7.052;2024-02-21T05:21:37;101318.38;;;9.24;68.92
83248;BME280;73465;51.038;7.052;2024-02-21T05:24:03;101316.91;;;9.13;70.61
83248;BME280;73465;51.038;7.052;2024-02-21T05:26:28;101322.28;;;9.39;69.41
83248;BME280;73465;51.038;7.052;2024-02-21T05:28:54;101331.63;;;9.49;67.57
83248;BME280;73465;51.038;7.052;2024-02-21T05:31:20;101324.41;;;9.27;68.93
83248;BME280;73465;51.038;7.052;2024-02-21T05:33:48;101322.59;;;9.29;68.82
83248;BME280;73465;51.038;7.052;2024-02-21T05:36:14;101315.44;;;9.33;68.69
83248;BME280;73465;51.038;7.052;2024-02-21T05:38:39;101309.84;;;9.45;68.07
83248;BME280;73465;51.038;7.052;2024-02-21T05:41:05;101307.56;;;9.33;68.54
83248;BME280;73465;51.038;7.052;2024-02-21T05:43:31;101297.59;;;9.44;68.41
83248;BME280;73465;51.038;7.052;2024-02-21T05:45:57;101304.59;;;9.44;68.17
83248;BME280;73465;51.038;7.052;2024-02-21T05:48:33;101307.16;;;9.47;68.12
83248;BME280;73465;51.038;7.052;2024-02-21T05:51:01;101313.50;;;9.40;68.12
83248;BME280;73465;51.038;7.052;2024-02-21T05:53:26;101313.38;;;9.44;68.44
83248;BME280;73465;51.038;7.052;2024-02-21T05:55:52;101303.91;;;9.39;68.21
83248;BME280;73465;51.038;7.052;2024-02-21T05:58:17;101303.69;;;9.45;67.95
83248;BME280;73465;51.038;7.052;2024-02-21T06:00:43;101304.34;;;9.25;69.14
83248;BME280;73465;51.038;7.052;2024-02-21T06:03:08;101304.00;;;9.36;68.35
83248;BME280;73465;51.038;7.052;2024-02-21T06:05:37;101307.16;;;9.47;68.35
83248;BME280;73465;51.038;7.052;2024-02-21T06:08:04;101304.38;;;9.52;68.14
83248;BME280;73465;51.038;7.052;2024-02-21T06:10:29;101296.63;;;9.47;68.15
83248;BME280;73465;51.038;7.052;2024-02-21T06:12:54;101302.16;;;9.38;68.19
83248;BME280;73465;51.038;7.052;2024-02-21T06:15:20;101294.16;;;9.42;67.76
83248;BME280;73465;51.038;7.052;2024-02-21T06:17:45;101288.03;;;9.42;67.17
83248;BME280;73465;51.038;7.052;2024-02-21T06:20:10;101281.41;;;9.30;67.88
83248;BME280;73465;51.038;7.052;2024-02-21T06:22:36;101269.03;;;9.34;66.60
83248;BME280;73465;51.038;7.052;2024-02-21T06:25:01;101279.47;;;9.35;67.29
83248;BME280;73465;51.038;7.052;2024-02-21T06:27:27;101284.03;;;9.30;67.11
83248;BME280;73465;51.038;7.052;2024-02-21T06:29:52;101270.75;;;9.35;68.10
83248;BME280;73465;51.038;7.052;2024-02-21T06:32:17;101268.50;;;9.22;67.64
83248;BME280;73465;51.038;7.052;2024-02-21T06:34:43;101269.22;;;9.27;67.25
83248;BME280;73465;51.038;7.052;2024-02-21T06:37:08;101263.13;;;9.25;66.82
83248;BME280;73465;51.038;7.052;2024-02-21T06:39:34;101261.00;;;9.38;67.05
83248;BME280;73465;51.038;7.052;2024-02-21T06:42:02;101264.97;;;9.50;66.68
83248;BME280;73465;51.038;7.052;2024-02-21T06:44:28;101261.66;;;9.45;66.55
83248;BME280;73465;51.038;7.052;2024-02-21T06:46:53;101260.19;;;9.36;67.13
83248;BME280;73465;51.038;7.052;2024-02-21T06:49:19;101252.09;;;9.14;68.04
83248;BME280;73465;51.038;7.052;2024-02-21T06:51:45;101240.72;;;9.13;68.08
83248;BME280;73465;51.038;7.052;2024-02-21T06:54:10;101232.81;;;9.15;68.05
83248;BME280;73465;51.038;7.052;2024-02-21T06:56:37;101240.38;;;9.24;68.25
83248;BME280;73465;51.038;7.052;2024-02-21T06:59:03;101246.97;;;9.38;67.55
83248;BME280;73465;51.038;7.052;2024-02-21T07:01:31;101235.22;;;9.50;67.16
83248;BME280;73465;51.038;7.052;2024-02-21T07:03:56;101245.22;;;9.38;67.17
83248;BME280;73465;51.038;7.052;2024-02-21T07:06:22;101237.38;;;9.37;67.56
83248;BME280;73465;51.038;7.052;2024-02-21T07:08:48;101241.31;;;9.50;67.69
83248;BME280;73465;51.038;7.052;2024-02-21T07:11:13;101239.78;;;9.44;67.44
83248;BME280;73465;51.038;7.052;2024-02-21T07:13:38;101227.19;;;9.54;67.57
83248;BME280;73465;51.038;7.052;2024-02-21T07:16:04;101235.88;;;9.56;67.22
83248;BME280;73465;51.038;7.052;2024-02-21T07:18:30;101237.28;;;9.40;67.74
83248;BME280;73465;51.038;7.052;2024-02-21T07:20:55;101233.56;;;9.47;67.43
83248;BME280;73465;51.038;7.052;2024-02-21T07:23:21;101234.53;;;9.70;67.21
83248;BME280;73465;51.038;7.052;2024-02-21T07:25:46;101235.97;;;9.53;67.63
83248;BME280;73465;51.038;7.052;2024-02-21T07:28:11;101233.56;;;9.47;67.62
83248;BME280;73465;51.038;7.052;2024-02-21T07:30:38;101229.41;;;9.40;68.13
83248;BME280;73465;51.038;7.052;2024-02-21T07:33:03;101233.63;;;9.44;68.24
83248;BME280;73465;51.038;7.052;2024-02-21T07:35:29;101233.34;;;9.53;67.59
83248;BME280;73465;51.038;7.052;2024-02-21T07:37:54;101234.47;;;9.46;68.48
83248;BME280;73465;51.038;7.052;2024-02-21T07:40:21;101222.84;;;9.53;67.13
83248;BME280;73465;51.038;7.052;2024-02-21T07:42:46;101224.50;;;9.56;67.66
83248;BME280;73465;51.038;7.052;2024-02-21T07:45:11;101214.28;;;9.46;68.01
83248;BME280;73465;51.038;7.052;2024-02-21T07:47:37;101220.25;;;9.52;68.13
83248;BME280;73465;51.038;7.052;2024-02-21T07:50:03;101224.44;;;9.57;67.92
83248;BME280;73465;51.038;7.052;2024-02-21T07:52:28;101217.63;;;9.25;69.01
83248;BME280;73465;51.038;7.052;2024-02-21T07:54:54;101205.44;;;9.22;69.54
83248;BME280;73465;51.038;7.052;2024-02-21T07:57:19;101205.06;;;9.33;69.10
83248;BME280;73465;51.038;7.052;2024-02-21T07:59:44;101207.56;;;9.38;69.04
83248;BME280;73465;51.038;7.052;2024-02-21T08:02:12;101204.47;;;9.25;68.81
83248;BME280;73465;51.038;7.052;2024-02-21T08:04:37;101196.69;;;9.22;68.58
83248;BME280;73465;51.038;7.052;2024-02-21T08:07:03;101196.53;;;9.26;69.06
83248;BME280;73465;51.038;7.052;2024-02-21T08:09:29;101194.94;;;9.49;68.47
83248;BME280;73465;51.038;7.052;2024-02-21T08:11:55;101189.69;;;9.49;68.41
83248;BME280;73465;51.038;7.052;2024-02-21T08:14:21;101183.56;;;9.48;67.85
83248;BME280;73465;51.038;7.052;2024-02-21T08:16:47;101183.19;;;9.32;68.50
83248;BME280;73465;51.038;7.052;2024-02-21T08:19:12;101176.78;;;9.41;68.08
83248;BME280;73465;51.038;7.052;2024-02-21T08:21:38;101176.28;;;9.30;68.06
83248;BME280;73465;51.038;7.052;2024-02-21T08:24:04;101165.75;;;9.30;68.52
83248;BME280;73465;51.038;7.052;2024-02-21T08:26:29;101160.31;;;9.36;68.43
83248;BME280;73465;51.038;7.052;2024-02-21T08:28:56;101154.44;;;9.28;68.36
83248;BME280;73465;51.038;7.052;2024-02-21T08:31:26;101160.38;;;9.35;68.32
83248;BME280;73465;51.038;7.052;2024-02-21T08:33:57;101152.78;;;9.25;68.43
83248;BME280;73465;51.038;7.052;2024-02-21T08:36:28;101151.25;;;9.18;68.81
83248;BME280;73465;51.038;7.052;2024-02-21T08:38:54;101152.34;;;9.38;68.17
83248;BME280;73465;51.038;7.052;2024-02-21T08:41:19;101143.78;;;9.32;68.26
83248;BME280;73465;51.038;7.052;2024-02-21T08:43:46;101128.72;;;9.38;67.73
83248;BME280;73465;51.038;7.052;2024-02-21T08:46:12;101135.13;;;9.56;67.36
83248;BME280;73465;51.038;7.052;2024-02-21T08:48:37;101137.25;;;9.70;66.76
83248;BME280;73465;51.038;7.052;2024-02-21T08:51:03;101135.97;;;9.56;66.14
83248;BME280;73465;51.038;7.052;2024-02-21T08:53:28;101137.34;;;9.41;67.50
83248;BME280;73465;51.038;7.052;2024-02-21T08:55:53;101136.78;;;9.58;67.28
83248;BME280;73465;51.038;7.052;2024-02-21T08:58:19;101118.88;;;9.44;66.76
83248;BME280;73465;51.038;7.052;2024-02-21T09:00:44;101117.09;;;9.70;66.41
83248;BME280;73465;51.038;7.052;2024-02-21T09:03:09;101115.53;;;9.90;66.11
83248;BME280;73465;51.038;7.052;2024-02-21T09:05:38;101110.34;;;9.63;65.79
83248;BME280;73465;51.038;7.052;2024-02-21T09:08:04;101118.69;;;9.74;65.63
83248;BME280;73465;51.038;7.052;2024-02-21T09:10:30;101113.28;;;9.79;65.55
83248;BME280;73465;51.038;7.052;2024-02-21T09:12:55;101105.31;;;9.80;64.53
83248;BME280;73465;51.038;7.052;2024-02-21T09:15:21;101095.31;;;9.90;64.87
83248;BME280;73465;51.038;7.052;2024-02-21T09:17:46;101086.44;;;9.94;63.29
83248;BME280;73465;51.038;7.052;2024-02-21T09:20:11;101084.47;;;10.23;63.12
83248;BME280;73465;51.038;7.052;2024-02-21T09:22:37;101083.56;;;10.24;61.92
83248;BME280;73465;51.038;7.052;2024-02-21T09:25:05;101088.38;;;10.37;62.32
83248;BME280;73465;51.038;7.052;2024-02-21T09:27:30;101080.16;;;10.44;61.57
83248;BME280;73465;51.038;7.052;2024-02-21T09:29:56;101080.66;;;10.76;61.60
83248;BME280;73465;51.038;7.052;2024-02-21T09:32:21;101069.19;;;10.57;61.27
83248;BME280;73465;51.038;7.052;2024-02-21T09:34:46;101079.41;;;10.65;61.42
83248;BME280;73465;51.038;7.052;2024-02-21T09:37:12;101068.56;;;10.26;61.44
83248;BME280;73465;51.038;7.052;2024-02-21T09:39:37;101066.91;;;10.48;60.93
83248;BME280;73465;51.038;7.052;2024-02-21T09:42:06;101070.03;;;10.57;61.41
83248;BME280;73465;51.038;7.052;2024-02-21T09:44:37;101063.03;;;10.79;60.37
83248;BME280;73465;51.038;7.052;2024-02-21T09:47:10;101055.56;;;10.68;60.38
83248;BME280;73465;51.038;7.052;2024-02-21T09:49:40;101055.53;;;10.69;59.39
83248;BME280;73465;51.038;7.052;2024-02-21T09:52:07;101039.66;;;10.71;59.50
83248;BME280;73465;51.038;7.052;2024-02-21T09:54:33;101049.06;;;10.99;58.80
83248;BME280;73465;51.038;7.052;2024-02-21T09:57:03;101041.06;;;11.00;58.46
83248;BME280;73465;51.038;7.052;2024-02-21T09:59:30;101040.00;;;10.62;59.40
83248;BME280;73465;51.038;7.052;2024-02-21T10:01:56;101038.56;;;10.97;58.81
83248;BME280;73465;51.038;7.052;2024-02-21T10:04:21;101036.91;;;10.95;58.04
83248;BME280;73465;51.038;7.052;2024-02-21T10:06:47;101043.72;;;11.21;57.74
83248;BME280;73465;51.038;7.052;2024-02-21T10:09:28;101038.13;;;11.29;56.98
83248;BME280;73465;51.038;7.052;2024-02-21T10:11:55;101031.50;;;11.39;56.83
83248;BME280;73465;51.038;7.052;2024-02-21T10:14:21;101033.56;;;11.53;56.07
83248;BME280;73465;51.038;7.052;2024-02-21T10:16:48;101041.47;;;11.72;56.21
83248;BME280;73465;51.038;7.052;2024-02-21T10:19:20;101027.72;;;11.84;55.94
83248;BME280;73465;51.038;7.052;2024-02-21T10:22:02;101032.34;;;12.19;54.69
83248;BME280;73465;51.038;7.052;2024-02-21T10:24:37;101036.72;;;12.20;55.02
83248;BME280;73465;51.038;7.052;2024-02-21T10:27:11;101019.72;;;12.26;54.87
83248;BME280;73465;51.038;7.052;2024-02-21T10:29:37;101031.66;;;12.15;54.40
83248;BME280;73465;51.038;7.052;2024-02-21T10:32:11;101037.88;;;11.94;55.20
83248;BME280;73465;51.038;7.052;2024-02-21T10:34:38;101027.31;;;11.94;54.79
83248;BME280;73465;51.038;7.052;2024-02-21T10:37:05;101013.78;;;11.82;54.23
83248;BME280;73465;51.038;7.052;2024-02-21T10:39:32;101017.47;;;11.78;55.32
83248;BME280;73465;51.038;7.052;2024-02-21T10:42:00;101002.91;;;12.46;54.36
83248;BME280;73465;51.038;7.052;2024-02-21T10:44:29;100991.75;;;12.22;54.20
83248;BME280;73465;51.038;7.052;2024-02-21T10:46:56;101000.25;;;12.09;53.82
83248;BME280;73465;51.038;7.052;2024-02-21T10:49:26;100992.38;;;11.88;54.14
83248;BME280;73465;51.038;7.052;2024-02-21T12:21:47;100715.59;;;13.00;51.73
83248;BME280;73465;51.038;7.052;2024-02-21T12:24:21;100709.22;;;12.39;52.92
83248;BME280;73465;51.038;7.052;2024-02-21T12:26:46;100693.91;;;12.46;52.87
83248;BME280;73465;51.038;7.052;2024-02-21T12:29:12;100674.09;;;12.71;52.93
83248;BME280;73465;51.038;7.052;2024-02-21T12:31:38;100663.56;;;12.53;52.48
83248;BME280;73465;51.038;7.052;2024-02-21T12:34:05;100669.31;;;12.77;51.90
83248;BME280;73465;51.038;7.052;2024-02-21T12:36:31;100662.50;;;12.73;52.01
83248;BME280;73465;51.038;7.052;2024-02-21T12:38:57;100648.69;;;12.52;52.75
83248;BME280;73465;51.038;7.052;2024-02-21T12:41:22;100647.06;;;12.65;52.71
83248;BME280;73465;51.038;7.052;2024-02-21T12:43:47;100638.47;;;12.78;52.04
83248;BME280;73465;51.038;7.052;2024-02-21T12:46:13;100616.88;;;12.86;52.20
83248;BME280;73465;51.038;7.052;2024-02-21T12:48:38;100621.91;;;13.06;51.53
83248;BME280;73465;51.038;7.052;2024-02-21T12:51:05;100615.66;;;13.54;50.16
83248;BME280;73465;51.038;7.052;2024-02-21T12:53:30;100600.56;;;13.09;51.57
83248;BME280;73465;51.038;7.052;2024-02-21T12:55:55;100569.03;;;13.06;51.44
83248;BME280;73465;51.038;7.052;2024-02-21T12:58:21;100535.44;;;13.23;50.88
83248;BME280;73465;51.038;7.052;2024-02-21T13:00:47;100496.41;;;13.12;51.79
83248;BME280;73465;51.038;7.052;2024-02-21T13:03:12;100481.47;;;13.41;50.91
83248;BME280;73465;51.038;7.052;2024-02-21T13:05:38;100523.13;;;13.38;50.95
83248;BME280;73465;51.038;7.052;2024-02-21T13:08:14;100562.91;;;13.51;50.35
83248;BME280;73465;51.038;7.052;2024-02-21T13:10:39;100557.78;;;13.47;50.11
83248;BME280;73465;51.038;7.052;2024-02-21T13:13:05;100587.97;;;13.29;50.53
83248;BME280;73465;51.038;7.052;2024-02-21T13:15:30;100556.16;;;13.30;50.48
83248;BME280;73465;51.038;7.052;2024-02-21T13:17:56;100527.53;;;13.37;50.45
83248;BME280;73465;51.038;7.052;2024-02-21T13:20:25;100496.34;;;13.13;49.95
83248;BME280;73465;51.038;7.052;2024-02-21T13:22:52;100499.94;;;13.12;50.21
83248;BME280;73465;51.038;7.052;2024-02-21T13:25:18;100496.41;;;13.57;49.89
83248;BME280;73465;51.038;7.052;2024-02-21T13:27:46;100506.81;;;13.60;49.57
83248;BME280;73465;51.038;7.052;2024-02-21T13:30:12;100507.06;;;13.84;48.53
83248;BME280;73465;51.038;7.052;2024-02-21T13:32:38;100508.03;;;13.40;49.35
83248;BME280;73465;51.038;7.052;2024-02-21T13:35:03;100490.13;;;13.29;49.61
83248;BME280;73465;51.038;7.052;2024-02-21T13:37:29;100506.88;;;13.58;49.81
83248;BME280;73465;51.038;7.052;2024-02-21T13:39:54;100497.91;;;13.02;50.60
83248;BME280;73465;51.038;7.052;2024-02-21T13:42:20;100503.81;;;13.21;50.39
83248;BME280;73465;51.038;7.052;2024-02-21T13:44:46;100513.41;;;13.08;49.92
83248;BME280;73465;51.038;7.052;2024-02-21T13:47:14;100486.25;;;12.75;51.08
83248;BME280;73465;51.038;7.052;2024-02-21T13:49:39;100465.50;;;12.83;50.60
83248;BME280;73465;51.038;7.052;2024-02-21T13:52:05;100473.19;;;13.03;49.96
83248;BME280;73465;51.038;7.052;2024-02-21T13:54:30;100475.69;;;12.90;50.54
83248;BME280;73465;51.038;7.052;2024-02-21T13:56:55;100462.44;;;12.61;51.56
83248;BME280;73465;51.038;7.052;2024-02-21T13:59:21;100465.22;;;12.88;51.14
83248;BME280;73465;51.038;7.052;2024-02-21T14:01:46;100449.63;;;12.83;51.57
83248;BME280;73465;51.038;7.052;2024-02-21T14:04:11;100454.44;;;12.46;51.81
83248;BME280;73465;51.038;7.052;2024-02-21T14:06:37;100436.47;;;12.37;51.77
83248;BME280;73465;51.038;7.052;2024-02-21T14:09:14;100435.66;;;12.67;51.31
83248;BME280;73465;51.038;7.052;2024-02-21T14:11:39;100427.25;;;12.44;52.10
83248;BME280;73465;51.038;7.052;2024-02-21T14:14:06;100422.13;;;12.27;52.35
83248;BME280;73465;51.038;7.052;2024-02-21T14:16:34;100414.03;;;12.30;52.70
83248;BME280;73465;51.038;7.052;2024-02-21T14:18:59;100428.50;;;12.39;52.43
83248;BME280;73465;51.038;7.052;2024-02-21T14:21:25;100424.53;;;12.15;52.87
83248;BME280;73465;51.038;7.052;2024-02-21T14:23:51;100429.44;;;12.22;52.79
83248;BME280;73465;51.038;7.052;2024-02-21T14:26:18;100426.78;;;12.68;60.26